Time;durP1;ratioP1;P1;durP2;ratioP2;P2;SDS_P1;SDS_P2;PMS_P1;PMS_P2;Temp;Humidity;BMP_temperature;BMP_pressure;BME280_temperature;BME280_humidity;BME280_pressure;Samples;Min_cycle;Max_cycle;Signal;HPM_P1;HPM_P2
2022/05/25 00:01:48;;;;;;;4.17;2.50;;;;;;;;;;4965533;28;20210;-67
2022/05/25 00:04:14;;;;;;;2.40;2.20;;;;;;;;;;4947647;28;20225;-68
2022/05/25 00:06:40;;;;;;;3.07;2.50;;;;;;;;;;4965561;28;20187;-67
2022/05/25 00:09:06;;;;;;;2.87;2.60;;;;;;;;;;4969576;28;20186;-68
2022/05/25 00:11:32;;;;;;;2.80;2.60;;;;;;;;;;4973777;28;20198;-67
2022/05/25 00:13:58;;;;;;;5.33;2.77;;;;;;;;;;4967754;28;20199;-67
2022/05/25 00:16:24;;;;;;;2.70;2.50;;;;;;;;;;4964408;28;20281;-67
2022/05/25 00:21:34;;;;;;;3.80;2.60;;;;;;;;;;4964629;28;20197;-67
2022/05/25 00:24:00;;;;;;;2.50;2.30;;;;;;;;;;4959261;28;20269;-67
2022/05/25 00:26:26;;;;;;;3.07;2.83;;;;;;;;;;4944898;28;20330;-67
2022/05/25 00:28:52;;;;;;;3.50;2.43;;;;;;;;;;4968875;28;20749;-67
2022/05/25 00:31:18;;;;;;;5.47;2.43;;;;;;;;;;4955786;28;20183;-67
2022/05/25 00:33:44;;;;;;;3.00;2.50;;;;;;;;;;4936604;28;20288;-67
2022/05/25 00:36:10;;;;;;;2.83;2.47;;;;;;;;;;4928607;28;20198;-67
2022/05/25 00:38:36;;;;;;;2.83;1.90;;;;;;;;;;4932047;28;20195;-68
2022/05/25 00:41:02;;;;;;;2.70;2.50;;;;;;;;;;4935795;28;20187;-67
2022/05/25 00:43:28;;;;;;;2.63;2.43;;;;;;;;;;4950884;28;20309;-67
2022/05/25 00:45:56;;;;;;;2.83;2.60;;;;;;;;;;4956702;28;20187;-67
2022/05/25 00:48:42;;;;;;;2.73;2.30;;;;;;;;;;4955280;28;20190;-67
2022/05/25 00:51:12;;;;;;;2.93;2.73;;;;;;;;;;4918607;28;20910;-67
2022/05/25 00:53:38;;;;;;;2.70;2.50;;;;;;;;;;4934925;28;20194;-67
2022/05/25 00:56:04;;;;;;;2.47;2.27;;;;;;;;;;4972184;28;20191;-68
2022/05/25 00:58:30;;;;;;;3.73;2.30;;;;;;;;;;4971484;28;20194;-67
2022/05/25 01:00:56;;;;;;;2.63;2.40;;;;;;;;;;4960689;28;21246;-68
2022/05/25 01:03:22;;;;;;;2.30;2.10;;;;;;;;;;4967105;28;20225;-67
2022/05/25 01:06:00;;;;;;;2.50;2.30;;;;;;;;;;4965966;28;20185;-67
2022/05/25 01:08:45;;;;;;;3.47;2.40;;;;;;;;;;4966301;28;20182;-67
2022/05/25 01:11:14;;;;;;;2.40;2.20;;;;;;;;;;4971088;28;20201;-67
2022/05/25 01:13:40;;;;;;;2.67;2.20;;;;;;;;;;4971391;28;20652;-67
2022/05/25 01:16:25;;;;;;;2.50;2.30;;;;;;;;;;4959530;28;20194;-67
2022/05/25 01:18:57;;;;;;;4.03;2.27;;;;;;;;;;4972803;28;20183;-67
2022/05/25 01:21:32;;;;;;;4.93;2.60;;;;;;;;;;4964092;28;22118;-67
2022/05/25 01:24:17;;;;;;;3.23;2.10;;;;;;;;;;4969552;28;20826;-67
2022/05/25 01:27:02;;;;;;;2.90;2.50;;;;;;;;;;4964576;28;20197;-67
2022/05/25 01:29:31;;;;;;;4.57;2.40;;;;;;;;;;4967539;28;20240;-67
2022/05/25 01:31:58;;;;;;;4.73;2.63;;;;;;;;;;4968153;28;21156;-67
2022/05/25 01:34:43;;;;;;;7.57;2.80;;;;;;;;;;4952323;28;20690;-67
2022/05/25 01:37:27;;;;;;;5.93;2.60;;;;;;;;;;4967021;28;20300;-68
2022/05/25 01:39:54;;;;;;;3.47;2.40;;;;;;;;;;4962178;28;20212;-67
2022/05/25 01:42:22;;;;;;;5.50;2.23;;;;;;;;;;4968244;28;20300;-67
2022/05/25 01:44:56;;;;;;;3.63;2.60;;;;;;;;;;4948160;28;20219;-67
2022/05/25 01:47:23;;;;;;;3.70;2.43;;;;;;;;;;4946056;28;20191;-67
2022/05/25 01:49:56;;;;;;;3.23;2.57;;;;;;;;;;4946994;28;20277;-67
2022/05/25 01:52:23;;;;;;;2.83;2.27;;;;;;;;;;4950667;28;20187;-67
2022/05/25 01:54:55;;;;;;;2.80;2.60;;;;;;;;;;4957943;28;21433;-67
2022/05/25 01:57:25;;;;;;;5.30;2.70;;;;;;;;;;4965628;28;20187;-67
2022/05/25 01:59:51;;;;;;;4.33;2.70;;;;;;;;;;4953256;28;20562;-67
2022/05/25 02:05:04;;;;;;;4.57;2.60;;;;;;;;;;4959623;28;20281;-67
2022/05/25 02:07:59;;;;;;;4.53;2.60;;;;;;;;;;4948154;28;20219;-67
2022/05/25 02:10:25;;;;;;;6.50;3.07;;;;;;;;;;4911564;28;20200;-67
2022/05/25 02:13:07;;;;;;;3.63;2.47;;;;;;;;;;4966591;28;20201;-67
2022/05/25 02:15:33;;;;;;;4.50;2.80;;;;;;;;;;4968760;28;20220;-67
2022/05/25 02:18:12;;;;;;;3.63;2.37;;;;;;;;;;4967220;28;20190;-67
2022/05/25 02:20:52;;;;;;;3.03;2.10;;;;;;;;;;4951700;28;20566;-67
2022/05/25 02:23:36;;;;;;;3.73;2.43;;;;;;;;;;4960068;28;20252;-67
2022/05/25 02:26:07;;;;;;;4.03;2.60;;;;;;;;;;4943072;28;20543;-67
2022/05/25 02:28:34;;;;;;;4.67;2.70;;;;;;;;;;4936425;28;20186;-67
2022/05/25 02:31:00;;;;;;;4.50;2.63;;;;;;;;;;4958842;28;20179;-67
2022/05/25 02:33:40;;;;;;;5.50;2.90;;;;;;;;;;4946445;28;20226;-67
2022/05/25 02:36:06;;;;;;;3.77;2.33;;;;;;;;;;4970163;28;20196;-67
2022/05/25 02:38:31;;;;;;;3.17;2.83;;;;;;;;;;4955929;28;20194;-67
2022/05/25 02:41:05;;;;;;;4.50;2.37;;;;;;;;;;4954515;28;20706;-68
2022/05/25 02:43:31;;;;;;;3.10;2.50;;;;;;;;;;4971461;28;20214;-67
2022/05/25 02:45:57;;;;;;;2.63;2.20;;;;;;;;;;4973675;28;20197;-67
2022/05/25 02:48:23;;;;;;;4.37;2.97;;;;;;;;;;4955919;28;20235;-67
2022/05/25 02:50:49;;;;;;;5.77;2.37;;;;;;;;;;4963192;28;20340;-67
2022/05/25 02:53:15;;;;;;;8.63;2.47;;;;;;;;;;4965502;28;20743;-67
2022/05/25 02:55:41;;;;;;;3.97;2.30;;;;;;;;;;4970853;28;20317;-67
2022/05/25 02:58:06;;;;;;;3.60;2.57;;;;;;;;;;4970742;28;20218;-67
2022/05/25 03:00:32;;;;;;;2.87;2.20;;;;;;;;;;4970751;28;20218;-67
2022/05/25 03:02:58;;;;;;;3.53;2.23;;;;;;;;;;4968046;28;20222;-67
2022/05/25 03:05:24;;;;;;;4.67;2.30;;;;;;;;;;4965769;28;20198;-67
2022/05/25 03:07:50;;;;;;;4.40;2.63;;;;;;;;;;4962346;28;20191;-67
2022/05/25 03:10:16;;;;;;;5.30;2.47;;;;;;;;;;4952334;28;20889;-67
2022/05/25 03:12:42;;;;;;;7.03;3.07;;;;;;;;;;4965416;28;20187;-67
2022/05/25 03:15:08;;;;;;;3.20;2.90;;;;;;;;;;4967190;28;20191;-67
2022/05/25 03:17:34;;;;;;;2.97;2.70;;;;;;;;;;4974134;28;20212;-68
2022/05/25 03:20:00;;;;;;;3.50;3.10;;;;;;;;;;4967399;28;20245;-68
2022/05/25 03:22:26;;;;;;;5.80;3.10;;;;;;;;;;4963548;28;24571;-68
2022/05/25 03:24:52;;;;;;;3.37;2.60;;;;;;;;;;4949142;28;20241;-68
2022/05/25 03:27:18;;;;;;;2.70;2.50;;;;;;;;;;4969684;28;20183;-67
2022/05/25 03:29:44;;;;;;;5.57;2.90;;;;;;;;;;4966492;28;20189;-67
2022/05/25 03:32:10;;;;;;;2.70;2.33;;;;;;;;;;4971602;28;20197;-67
2022/05/25 03:34:36;;;;;;;5.93;2.53;;;;;;;;;;4947714;28;20191;-67
2022/05/25 03:37:02;;;;;;;3.47;2.80;;;;;;;;;;4964902;28;20308;-67
2022/05/25 03:39:28;;;;;;;3.17;2.57;;;;;;;;;;4970396;28;20281;-67
2022/05/25 03:41:58;;;;;;;4.23;2.70;;;;;;;;;;4967643;28;20295;-67
2022/05/25 03:44:24;;;;;;;2.80;2.57;;;;;;;;;;4966829;28;20248;-67
2022/05/25 03:46:50;;;;;;;3.50;2.23;;;;;;;;;;4953631;28;20269;-67
2022/05/25 03:49:16;;;;;;;3.37;2.50;;;;;;;;;;4966598;28;20194;-67
2022/05/25 03:51:42;;;;;;;2.90;2.10;;;;;;;;;;4948978;28;20187;-67
2022/05/25 03:54:08;;;;;;;3.90;2.20;;;;;;;;;;4970293;28;20195;-67
2022/05/25 03:56:34;;;;;;;5.40;2.30;;;;;;;;;;4966990;28;21241;-67
2022/05/25 03:59:00;;;;;;;3.23;2.17;;;;;;;;;;4967069;28;20226;-67
2022/05/25 04:01:26;;;;;;;4.50;2.20;;;;;;;;;;4964018;28;20242;-67
2022/05/25 04:03:52;;;;;;;3.90;2.60;;;;;;;;;;4971016;28;20265;-67
2022/05/25 04:06:18;;;;;;;4.70;2.13;;;;;;;;;;4968173;28;20249;-67
2022/05/25 04:08:44;;;;;;;3.30;2.40;;;;;;;;;;4963589;28;20711;-67
2022/05/25 04:11:11;;;;;;;3.93;2.20;;;;;;;;;;4956726;28;20194;-67
2022/05/25 04:13:37;;;;;;;2.50;2.30;;;;;;;;;;4965976;28;20325;-67
2022/05/25 04:16:03;;;;;;;4.30;2.43;;;;;;;;;;4961209;28;21356;-67
2022/05/25 04:18:29;;;;;;;2.97;2.13;;;;;;;;;;4952427;28;20206;-67
2022/05/25 04:20:55;;;;;;;2.37;2.00;;;;;;;;;;4949806;28;20190;-67
2022/05/25 04:23:24;;;;;;;4.27;2.70;;;;;;;;;;4960724;28;20270;-67
2022/05/25 04:25:50;;;;;;;4.07;2.60;;;;;;;;;;4958486;28;20183;-67
2022/05/25 04:28:16;;;;;;;3.30;2.50;;;;;;;;;;4955378;28;20245;-68
2022/05/25 04:30:42;;;;;;;8.80;3.17;;;;;;;;;;4955381;28;20261;-68
2022/05/25 04:33:07;;;;;;;3.40;2.50;;;;;;;;;;4962975;28;20215;-68
2022/05/25 04:35:33;;;;;;;2.63;2.33;;;;;;;;;;4963836;28;20541;-67
2022/05/25 04:37:59;;;;;;;4.53;2.70;;;;;;;;;;4950404;28;20198;-67
2022/05/25 04:40:32;;;;;;;3.20;2.50;;;;;;;;;;4952024;28;20290;-67
2022/05/25 04:43:00;;;;;;;3.83;2.80;;;;;;;;;;4938988;28;20186;-67
2022/05/25 04:45:26;;;;;;;2.43;2.27;;;;;;;;;;4949548;28;20897;-67
2022/05/25 04:47:52;;;;;;;5.90;3.00;;;;;;;;;;4935113;28;20281;-66
2022/05/25 04:50:19;;;;;;;3.10;2.77;;;;;;;;;;4957972;28;20563;-66
2022/05/25 04:52:46;;;;;;;4.13;2.80;;;;;;;;;;4931521;28;20586;-66
2022/05/25 04:57:19;;;;;;;4.13;2.53;;;;;;;;;;4935090;28;20190;-66
2022/05/25 04:57:58;;;;;;;4.53;3.17;;;;;;;;;;4954460;28;20210;-67
2022/05/25 05:00:24;;;;;;;3.77;2.63;;;;;;;;;;4942220;28;20210;-67
2022/05/25 05:02:50;;;;;;;3.50;2.60;;;;;;;;;;4958894;28;20186;-67
2022/05/25 05:05:17;;;;;;;3.37;2.40;;;;;;;;;;4944589;28;20412;-68
2022/05/25 05:07:43;;;;;;;7.87;2.80;;;;;;;;;;4946502;28;20179;-67
2022/05/25 05:10:10;;;;;;;3.57;2.57;;;;;;;;;;4944157;28;20194;-67
2022/05/25 05:12:36;;;;;;;5.07;2.60;;;;;;;;;;4939620;28;21516;-64
2022/05/25 05:15:03;;;;;;;5.27;3.13;;;;;;;;;;4938668;28;20186;-65
2022/05/25 05:17:29;;;;;;;5.27;2.70;;;;;;;;;;4958007;28;20182;-64
2022/05/25 05:19:56;;;;;;;3.97;3.10;;;;;;;;;;4951207;28;20619;-65
2022/05/25 05:22:22;;;;;;;5.13;3.20;;;;;;;;;;4957771;28;20241;-65
2022/05/25 05:24:48;;;;;;;4.77;3.50;;;;;;;;;;4963774;28;20225;-65
2022/05/25 05:27:14;;;;;;;4.03;3.40;;;;;;;;;;4953621;28;20188;-65
2022/05/25 05:29:39;;;;;;;6.27;3.53;;;;;;;;;;4943909;28;20222;-65
2022/05/25 05:32:06;;;;;;;3.63;3.17;;;;;;;;;;4956402;28;20187;-65
2022/05/25 05:34:32;;;;;;;5.60;3.70;;;;;;;;;;4963594;28;20856;-65
2022/05/25 05:37:02;;;;;;;4.83;3.33;;;;;;;;;;4956616;28;20199;-67
2022/05/25 05:39:28;;;;;;;5.80;3.40;;;;;;;;;;4964502;28;20559;-67
2022/05/25 05:42:03;;;;;;;4.43;3.00;;;;;;;;;;4950736;28;21042;-68
2022/05/25 05:44:31;;;;;;;4.77;2.80;;;;;;;;;;4969390;28;20206;-69
2022/05/25 05:46:57;;;;;;;5.33;3.10;;;;;;;;;;4970202;28;20269;-68
2022/05/25 05:49:23;;;;;;;3.40;3.00;;;;;;;;;;4972566;28;20257;-68
2022/05/25 05:51:49;;;;;;;4.97;2.80;;;;;;;;;;4969583;28;20191;-68
2022/05/25 05:54:15;;;;;;;4.37;3.20;;;;;;;;;;4968972;28;20217;-68
2022/05/25 05:56:41;;;;;;;5.33;3.03;;;;;;;;;;4954747;28;20195;-68
2022/05/25 05:59:07;;;;;;;4.07;3.10;;;;;;;;;;4955754;28;20673;-68
2022/05/25 06:01:33;;;;;;;4.73;2.80;;;;;;;;;;4966879;28;20229;-68
2022/05/25 06:03:59;;;;;;;7.30;3.30;;;;;;;;;;4970802;28;20699;-68
2022/05/25 06:06:25;;;;;;;6.67;3.00;;;;;;;;;;4974085;28;20559;-68
2022/05/25 06:08:51;;;;;;;5.97;3.10;;;;;;;;;;4946932;28;20567;-69
2022/05/25 06:11:18;;;;;;;5.70;2.93;;;;;;;;;;4972295;28;20199;-69
2022/05/25 06:13:44;;;;;;;6.10;3.50;;;;;;;;;;4972101;28;20198;-68
2022/05/25 06:21:40;;;;;;;4.97;2.70;;;;;;;;;;4970454;28;20628;-69
2022/05/25 06:24:06;;;;;;;6.63;2.67;;;;;;;;;;4958185;28;20947;-68
2022/05/25 06:26:32;;;;;;;2.93;2.30;;;;;;;;;;4957589;28;20187;-68
2022/05/25 06:29:01;;;;;;;3.23;1.83;;;;;;;;;;4973852;28;20197;-68
2022/05/25 06:31:27;;;;;;;3.83;1.87;;;;;;;;;;4972087;28;20199;-68
2022/05/25 06:33:53;;;;;;;3.10;1.73;;;;;;;;;;4971377;28;20709;-68
2022/05/25 06:36:20;;;;;;;3.87;1.67;;;;;;;;;;4969495;28;20191;-68
2022/05/25 06:38:46;;;;;;;4.40;2.07;;;;;;;;;;4950826;28;20212;-69
2022/05/25 06:41:12;;;;;;;2.40;1.60;;;;;;;;;;4972611;28;20190;-68
2022/05/25 06:43:38;;;;;;;1.60;1.40;;;;;;;;;;4966589;28;20221;-68
2022/05/25 06:46:04;;;;;;;1.60;1.50;;;;;;;;;;4967011;28;20191;-68
2022/05/25 06:48:30;;;;;;;2.67;2.17;;;;;;;;;;4972068;28;20199;-68
2022/05/25 06:50:56;;;;;;;2.87;2.37;;;;;;;;;;4971396;28;20219;-69
2022/05/25 06:53:22;;;;;;;2.30;2.10;;;;;;;;;;4965825;28;20279;-68
2022/05/25 06:55:48;;;;;;;2.57;1.97;;;;;;;;;;4967133;28;20185;-69
2022/05/25 06:58:14;;;;;;;2.23;1.70;;;;;;;;;;4972222;28;20346;-69
2022/05/25 07:00:40;;;;;;;2.43;1.90;;;;;;;;;;4969016;28;20194;-69
2022/05/25 07:03:06;;;;;;;1.97;1.87;;;;;;;;;;4970233;28;20211;-69
2022/05/25 07:05:33;;;;;;;2.20;2.00;;;;;;;;;;4971739;28;20273;-69
2022/05/25 07:07:59;;;;;;;3.03;1.97;;;;;;;;;;4952996;28;20195;-69
2022/05/25 07:10:25;;;;;;;1.70;1.30;;;;;;;;;;4968993;28;20183;-69
2022/05/25 07:12:51;;;;;;;2.03;1.42;;;;;;;;;;4971141;28;20262;-69
2022/05/25 07:15:17;;;;;;;3.60;2.08;;;;;;;;;;4968664;28;20223;-69
2022/05/25 07:17:43;;;;;;;1.90;1.77;;;;;;;;;;4971200;28;20222;-69
2022/05/25 07:20:09;;;;;;;2.65;1.70;;;;;;;;;;4972841;28;20190;-69
2022/05/25 07:22:36;;;;;;;1.95;1.25;;;;;;;;;;4972836;28;20202;-69
2022/05/25 07:25:02;;;;;;;1.95;1.70;;;;;;;;;;4972635;28;20281;-69
2022/05/25 07:27:28;;;;;;;2.63;1.40;;;;;;;;;;4975051;28;20209;-69
2022/05/25 07:29:54;;;;;;;1.80;1.70;;;;;;;;;;4975007;28;20178;-69
2022/05/25 07:32:22;;;;;;;2.90;1.80;;;;;;;;;;4975699;28;20199;-69
2022/05/25 07:34:49;;;;;;;2.13;1.60;;;;;;;;;;4974177;28;20194;-69
2022/05/25 07:37:15;;;;;;;2.40;1.65;;;;;;;;;;4972551;28;20238;-69
2022/05/25 07:39:49;;;;;;;1.65;1.52;;;;;;;;;;4955805;28;21210;-69
2022/05/25 07:42:15;;;;;;;1.88;1.42;;;;;;;;;;4970714;28;20260;-69
2022/05/25 07:45:07;;;;;;;1.55;1.40;;;;;;;;;;4975202;28;20210;-69
2022/05/25 07:47:34;;;;;;;1.60;1.50;;;;;;;;;;4971474;28;20202;-69
2022/05/25 07:50:00;;;;;;;3.25;1.50;;;;;;;;;;4973341;28;20178;-69
2022/05/25 07:52:26;;;;;;;1.52;1.42;;;;;;;;;;4970356;28;20269;-69
2022/05/25 07:54:52;;;;;;;1.63;1.52;;;;;;;;;;4955726;28;20246;-69
2022/05/25 07:57:18;;;;;;;1.90;1.80;;;;;;;;;;4972333;28;21306;-69
2022/05/25 07:59:44;;;;;;;1.80;1.52;;;;;;;;;;4971225;28;20186;-68
2022/05/25 08:07:52;;;;;;;2.97;1.55;;;;;;;;;;4968192;28;20198;-69
2022/05/25 08:10:21;;;;;;;1.50;1.40;;;;;;;;;;4971212;28;20191;-69
2022/05/25 08:12:47;;;;;;;1.77;1.00;;;;;;;;;;4971937;28;20182;-68
2022/05/25 08:15:14;;;;;;;0.90;0.90;;;;;;;;;;4975258;28;20202;-69
2022/05/25 08:17:39;;;;;;;0.80;0.80;;;;;;;;;;4976221;28;20277;-69
2022/05/25 08:20:06;;;;;;;1.75;1.10;;;;;;;;;;4972259;28;20600;-69
2022/05/25 08:22:33;;;;;;;2.65;1.73;;;;;;;;;;4971271;28;20248;-69
2022/05/25 08:24:59;;;;;;;1.85;1.50;;;;;;;;;;4971686;28;20333;-69
2022/05/25 08:27:24;;;;;;;1.50;1.40;;;;;;;;;;4970480;28;20595;-69
2022/05/25 08:29:50;;;;;;;1.60;1.50;;;;;;;;;;4970135;28;20206;-69
2022/05/25 08:32:16;;;;;;;1.80;1.70;;;;;;;;;;4972730;28;20191;-69
2022/05/25 08:34:43;;;;;;;1.88;1.45;;;;;;;;;;4969479;28;20427;-69
2022/05/25 08:37:09;;;;;;;1.52;1.42;;;;;;;;;;4974801;28;20179;-69
2022/05/25 08:39:35;;;;;;;1.60;1.50;;;;;;;;;;4971720;28;20214;-69
2022/05/25 08:42:02;;;;;;;1.52;1.42;;;;;;;;;;4974654;28;20206;-69
2022/05/25 08:44:27;;;;;;;1.55;1.45;;;;;;;;;;4972441;28;20211;-69
2022/05/25 08:46:55;;;;;;;2.28;1.50;;;;;;;;;;4953508;28;20183;-70
2022/05/25 08:49:21;;;;;;;1.52;1.42;;;;;;;;;;4972964;28;20230;-69
2022/05/25 08:51:48;;;;;;;1.60;1.50;;;;;;;;;;4947636;28;20186;-69
2022/05/25 08:54:14;;;;;;;1.55;1.30;;;;;;;;;;4969393;28;20551;-69
2022/05/25 08:56:42;;;;;;;3.67;1.58;;;;;;;;;;4966491;28;20194;-69
2022/05/25 08:59:26;;;;;;;1.70;1.60;;;;;;;;;;4953599;28;20199;-69
2022/05/25 09:01:56;;;;;;;2.33;1.58;;;;;;;;;;4967538;28;20198;-69
2022/05/25 09:04:26;;;;;;;2.47;1.40;;;;;;;;;;4973528;28;20206;-69
2022/05/25 09:07:03;;;;;;;2.45;1.20;;;;;;;;;;4970028;28;20191;-69
2022/05/25 09:09:48;;;;;;;1.42;1.33;;;;;;;;;;4972153;28;20719;-70
2022/05/25 09:12:23;;;;;;;2.33;1.40;;;;;;;;;;4952905;28;20651;-69
2022/05/25 09:14:56;;;;;;;0.98;0.98;;;;;;;;;;4974124;28;20194;-70
2022/05/25 09:17:33;;;;;;;2.17;1.30;;;;;;;;;;4972805;28;20193;-71
2022/05/25 09:20:02;;;;;;;1.30;1.20;;;;;;;;;;4950195;28;20225;-70
2022/05/25 09:22:29;;;;;;;1.98;0.90;;;;;;;;;;4950039;28;20946;-70
2022/05/25 09:24:55;;;;;;;3.10;1.30;;;;;;;;;;4948756;28;21156;-69
2022/05/25 09:27:23;;;;;;;1.92;1.25;;;;;;;;;;4972375;28;20187;-72
2022/05/25 09:29:49;;;;;;;1.50;1.20;;;;;;;;;;4955298;28;20187;-70
2022/05/25 09:32:18;;;;;;;1.25;1.10;;;;;;;;;;4971355;28;20198;-71
2022/05/25 09:34:56;;;;;;;1.20;1.10;;;;;;;;;;4972191;28;20190;-70
2022/05/25 09:37:25;;;;;;;1.33;1.10;;;;;;;;;;4969430;28;20233;-71
2022/05/25 09:39:52;;;;;;;1.40;1.30;;;;;;;;;;4971392;28;20237;-71
2022/05/25 09:42:19;;;;;;;1.05;0.85;;;;;;;;;;4971498;28;20839;-71
2022/05/25 09:44:52;;;;;;;1.58;1.00;;;;;;;;;;4954457;28;20249;-71
2022/05/25 09:47:20;;;;;;;0.90;0.75;;;;;;;;;;4968625;28;20544;-71
2022/05/25 09:49:48;;;;;;;1.27;1.17;;;;;;;;;;4971146;28;20228;-71
2022/05/25 09:52:23;;;;;;;1.42;1.15;;;;;;;;;;4952404;28;20197;-71
2022/05/25 09:54:50;;;;;;;1.88;1.05;;;;;;;;;;4955173;28;20186;-71
2022/05/25 09:57:27;;;;;;;1.20;1.10;;;;;;;;;;4951363;28;20815;-70
2022/05/25 10:00:04;;;;;;;2.78;1.00;;;;;;;;;;4956919;28;20232;-71
2022/05/25 10:02:35;;;;;;;2.65;1.10;;;;;;;;;;4952923;28;20277;-71
2022/05/25 10:05:11;;;;;;;0.70;0.70;;;;;;;;;;4953650;28;20213;-71
2022/05/25 10:07:37;;;;;;;0.88;0.88;;;;;;;;;;4969492;28;20189;-71
2022/05/25 10:10:05;;;;;;;0.80;0.70;;;;;;;;;;4970031;28;20196;-71
2022/05/25 10:12:39;;;;;;;1.48;0.80;;;;;;;;;;4966898;28;20182;-70
2022/05/25 10:15:06;;;;;;;4.25;0.82;;;;;;;;;;4958477;28;20531;-69
2022/05/25 10:17:40;;;;;;;1.05;0.70;;;;;;;;;;4967690;28;20240;-71
2022/05/25 10:20:19;;;;;;;6.85;1.02;;;;;;;;;;4962365;28;20194;-72
2022/05/25 10:22:45;;;;;;;1.98;0.90;;;;;;;;;;4945086;28;20265;-72
2022/05/25 10:25:13;;;;;;;0.73;0.70;;;;;;;;;;4954058;28;20225;-72
2022/05/25 10:27:43;;;;;;;1.17;0.80;;;;;;;;;;4973803;28;20194;-72
2022/05/25 10:38:42;;;;;;;0.98;0.75;;;;;;;;;;4955865;28;20277;-70
2022/05/25 10:44:11;;;;;;;1.50;0.90;;;;;;;;;;4955226;28;20281;-66
2022/05/25 10:46:37;;;;;;;1.60;1.00;;;;;;;;;;4967790;28;20213;-71
2022/05/25 10:49:16;;;;;;;2.85;1.10;;;;;;;;;;4970323;28;20665;-71
2022/05/25 10:51:43;;;;;;;1.30;0.85;;;;;;;;;;4951405;28;20186;-73
2022/05/25 10:57:11;;;;;;;1.67;1.58;;;;;;;;;;4974566;28;20240;-73
2022/05/25 10:59:52;;;;;;;2.27;1.53;;;;;;;;;;4981635;28;20206;-66
2022/05/25 11:02:21;;;;;;;1.50;1.40;;;;;;;;;;4954067;28;20310;-64
2022/05/25 11:04:59;;;;;;;2.20;2.00;;;;;;;;;;4963366;28;20562;-65
2022/05/25 11:07:35;;;;;;;2.58;1.50;;;;;;;;;;4970397;28;20186;-65
2022/05/25 11:10:13;;;;;;;1.60;1.50;;;;;;;;;;4971183;28;20179;-65
2022/05/25 11:12:42;;;;;;;1.70;1.60;;;;;;;;;;4969237;28;20187;-65
2022/05/25 11:15:27;;;;;;;1.45;1.35;;;;;;;;;;4972572;28;20205;-65
2022/05/25 11:18:11;;;;;;;1.50;1.40;;;;;;;;;;4975290;28;20643;-66
2022/05/25 11:20:40;;;;;;;1.95;0.90;;;;;;;;;;4970108;28;20237;-66
2022/05/25 11:23:09;;;;;;;0.80;0.80;;;;;;;;;;4967129;28;20229;-66
2022/05/25 11:25:54;;;;;;;1.98;0.95;;;;;;;;;;4973019;28;20683;-66
2022/05/25 11:28:27;;;;;;;1.95;0.98;;;;;;;;;;4970028;28;20273;-66
2022/05/25 11:31:01;;;;;;;1.77;0.85;;;;;;;;;;4972383;28;20335;-66
2022/05/25 11:33:51;;;;;;;0.80;0.80;;;;;;;;;;4972127;28;20791;-66
2022/05/25 11:36:26;;;;;;;1.27;1.00;;;;;;;;;;4957528;28;20201;-65
2022/05/25 11:39:03;;;;;;;1.10;1.00;;;;;;;;;;4965127;28;20205;-66
2022/05/25 11:41:48;;;;;;;1.33;1.08;;;;;;;;;;4956684;28;20301;-66
2022/05/25 11:44:29;;;;;;;1.23;1.05;;;;;;;;;;4956839;28;20281;-65
2022/05/25 11:46:55;;;;;;;0.82;0.82;;;;;;;;;;4967943;28;20197;-66
2022/05/25 11:49:21;;;;;;;0.93;0.90;;;;;;;;;;4964566;28;20680;-66
2022/05/25 11:52:04;;;;;;;1.38;0.88;;;;;;;;;;4964569;28;20270;-65
2022/05/25 11:54:50;;;;;;;0.80;0.80;;;;;;;;;;4949045;28;20842;-65
2022/05/25 11:57:28;;;;;;;1.20;1.10;;;;;;;;;;4969818;28;20187;-66
2022/05/25 12:00:00;;;;;;;2.83;1.00;;;;;;;;;;4970913;28;20228;-65
2022/05/25 12:02:49;;;;;;;0.70;0.70;;;;;;;;;;4964887;28;20198;-65
2022/05/25 12:05:15;;;;;;;0.80;0.80;;;;;;;;;;4941816;28;20234;-66
2022/05/25 12:07:41;;;;;;;0.90;0.90;;;;;;;;;;4965326;28;20186;-66
2022/05/25 12:10:07;;;;;;;0.80;0.80;;;;;;;;;;4968510;28;20179;-66
2022/05/25 12:12:37;;;;;;;0.80;0.80;;;;;;;;;;4968190;28;20217;-66
2022/05/25 12:15:09;;;;;;;2.45;0.93;;;;;;;;;;4949295;28;20186;-66
2022/05/25 12:17:38;;;;;;;1.17;0.95;;;;;;;;;;4952031;28;20651;-66
2022/05/25 12:20:05;;;;;;;1.58;1.02;;;;;;;;;;4958643;28;20187;-66
2022/05/25 12:22:32;;;;;;;1.50;1.00;;;;;;;;;;4967507;28;21253;-66
2022/05/25 12:24:59;;;;;;;3.22;0.80;;;;;;;;;;4970108;28;20337;-66
2022/05/25 12:27:28;;;;;;;1.58;0.90;;;;;;;;;;4970584;28;22506;-66
2022/05/25 12:29:55;;;;;;;1.08;0.98;;;;;;;;;;4969080;28;20253;-66
2022/05/25 12:32:21;;;;;;;1.63;0.80;;;;;;;;;;4948496;28;20179;-65
2022/05/25 12:34:48;;;;;;;1.30;1.10;;;;;;;;;;4965519;28;20244;-66
2022/05/25 12:37:17;;;;;;;0.88;0.85;;;;;;;;;;4972043;28;20225;-66
2022/05/25 12:39:43;;;;;;;1.60;1.33;;;;;;;;;;4937808;28;21034;-66
2022/05/25 12:42:29;;;;;;;1.17;0.82;;;;;;;;;;4958344;28;20186;-66
2022/05/25 12:50:47;;;;;;;1.50;0.90;;;;;;;;;;4967466;28;20535;-66
2022/05/25 12:53:16;;;;;;;1.10;0.95;;;;;;;;;;4964222;28;20194;-66
2022/05/25 12:55:43;;;;;;;4.85;1.45;;;;;;;;;;4963424;28;20206;-69
2022/05/25 12:58:09;;;;;;;1.33;1.10;;;;;;;;;;4948191;28;20190;-68
2022/05/25 13:00:39;;;;;;;1.23;1.00;;;;;;;;;;4953404;28;21198;-67
2022/05/25 13:03:24;;;;;;;2.15;1.27;;;;;;;;;;4969387;28;20221;-69
2022/05/25 13:05:52;;;;;;;1.33;1.20;;;;;;;;;;4964218;28;20209;-69
2022/05/25 13:08:36;;;;;;;2.47;1.08;;;;;;;;;;4967442;28;20179;-68
2022/05/25 13:11:03;;;;;;;0.82;0.80;;;;;;;;;;4971374;28;20187;-69
2022/05/25 13:13:29;;;;;;;3.35;1.10;;;;;;;;;;4966386;28;20547;-68
2022/05/25 13:15:55;;;;;;;1.40;1.00;;;;;;;;;;4970688;28;20193;-68
2022/05/25 13:18:47;;;;;;;2.17;1.17;;;;;;;;;;4957069;28;20209;-69
2022/05/25 13:21:33;;;;;;;1.95;1.20;;;;;;;;;;4964504;28;20289;-70
2022/05/25 13:24:03;;;;;;;2.00;1.20;;;;;;;;;;4956945;28;20312;-68
2022/05/25 13:26:47;;;;;;;1.55;1.30;;;;;;;;;;4956049;28;20218;-70
2022/05/25 13:29:16;;;;;;;23.95;8.15;;;;;;;;;;4954339;28;20184;-69
2022/05/25 13:31:47;;;;;;;27.80;9.65;;;;;;;;;;4960626;28;20224;-69
2022/05/25 13:34:16;;;;;;;6.85;1.80;;;;;;;;;;4938067;28;20735;-69
2022/05/25 13:36:43;;;;;;;2.28;1.40;;;;;;;;;;4961600;28;20264;-69
2022/05/25 13:39:10;;;;;;;2.05;1.52;;;;;;;;;;4945163;28;20201;-71
2022/05/25 13:41:45;;;;;;;2.67;1.30;;;;;;;;;;4933380;28;20194;-68
2022/05/25 13:44:18;;;;;;;2.50;1.00;;;;;;;;;;4939767;28;20214;-69
2022/05/25 13:46:44;;;;;;;1.30;0.97;;;;;;;;;;4955633;28;20991;-68
2022/05/25 13:49:31;;;;;;;5.00;1.30;;;;;;;;;;4954529;28;20199;-68
2022/05/25 13:52:12;;;;;;;1.60;1.20;;;;;;;;;;4944689;28;20186;-69
2022/05/25 13:54:38;;;;;;;2.87;1.00;;;;;;;;;;4960164;28;20593;-67
2022/05/25 13:57:05;;;;;;;1.93;1.03;;;;;;;;;;4935168;28;20727;-69
2022/05/25 13:59:40;;;;;;;2.00;1.10;;;;;;;;;;4938332;28;20202;-69
2022/05/25 14:02:26;;;;;;;1.20;1.00;;;;;;;;;;4956856;28;20187;-69
2022/05/25 14:04:53;;;;;;;3.23;1.23;;;;;;;;;;4961291;28;20221;-68
2022/05/25 14:07:27;;;;;;;2.80;1.00;;;;;;;;;;4939956;28;20189;-68
2022/05/25 14:12:39;;;;;;;0.95;0.90;;;;;;;;;;4958775;28;22604;-68
2022/05/25 14:15:06;;;;;;;2.75;1.20;;;;;;;;;;4970357;28;20187;-68
2022/05/25 14:17:31;;;;;;;2.05;0.95;;;;;;;;;;4967407;28;20736;-68
2022/05/25 14:19:58;;;;;;;2.22;0.80;;;;;;;;;;4966721;28;20202;-69
2022/05/25 14:22:25;;;;;;;1.23;0.95;;;;;;;;;;4966528;28;20314;-68
2022/05/25 14:24:52;;;;;;;4.80;1.20;;;;;;;;;;4969390;28;20238;-68
2022/05/25 14:27:21;;;;;;;1.52;1.20;;;;;;;;;;4965239;28;20888;-68
2022/05/25 14:29:47;;;;;;;5.35;1.17;;;;;;;;;;4973287;28;20532;-67
2022/05/25 14:32:22;;;;;;;6.45;1.20;;;;;;;;;;4969824;28;20191;-68
2022/05/25 14:34:48;;;;;;;1.58;0.90;;;;;;;;;;4961890;28;20689;-65
2022/05/25 14:37:15;;;;;;;1.58;1.20;;;;;;;;;;4956206;28;20652;-65
2022/05/25 14:39:40;;;;;;;3.33;1.00;;;;;;;;;;4952240;28;20233;-65
2022/05/25 14:42:08;;;;;;;4.53;1.10;;;;;;;;;;4971656;28;20222;-65
2022/05/25 14:44:39;;;;;;;4.13;1.35;;;;;;;;;;4966464;28;20639;-65
2022/05/25 14:47:12;;;;;;;4.15;0.90;;;;;;;;;;4965846;28;20186;-65
2022/05/25 14:49:37;;;;;;;2.47;0.90;;;;;;;;;;4963623;28;20225;-65
2022/05/25 14:52:09;;;;;;;2.58;1.08;;;;;;;;;;4973357;28;20270;-65
2022/05/25 14:54:35;;;;;;;0.93;0.90;;;;;;;;;;4972768;28;20197;-67
2022/05/25 14:57:00;;;;;;;4.20;0.90;;;;;;;;;;4972817;28;20194;-67
2022/05/25 14:59:27;;;;;;;1.67;1.00;;;;;;;;;;4955509;28;20270;-69
2022/05/25 15:01:57;;;;;;;1.40;1.20;;;;;;;;;;4954265;28;20182;-68
2022/05/25 15:04:33;;;;;;;3.35;1.10;;;;;;;;;;4963287;28;20216;-69
2022/05/25 15:06:59;;;;;;;3.85;1.33;;;;;;;;;;4968408;28;20191;-69
2022/05/25 15:09:29;;;;;;;2.58;0.90;;;;;;;;;;4961441;28;20198;-69
2022/05/25 15:12:04;;;;;;;2.92;0.90;;;;;;;;;;4947968;28;20211;-69
2022/05/25 15:20:03;;;;;;;1.13;0.90;;;;;;;;;;4972280;28;20197;-69
2022/05/25 15:22:29;;;;;;;2.45;1.20;;;;;;;;;;4951173;28;20221;-69
2022/05/25 15:24:57;;;;;;;1.77;1.17;;;;;;;;;;4943318;28;20252;-70
2022/05/25 15:27:23;;;;;;;2.23;1.00;;;;;;;;;;4957461;28;20203;-69
2022/05/25 15:29:53;;;;;;;2.13;1.00;;;;;;;;;;4970010;28;20659;-69
2022/05/25 15:32:19;;;;;;;4.27;1.23;;;;;;;;;;4962865;28;20194;-69
2022/05/25 15:34:45;;;;;;;1.83;1.23;;;;;;;;;;4963124;28;20300;-69
2022/05/25 15:37:24;;;;;;;2.63;1.10;;;;;;;;;;4961103;28;20747;-69
2022/05/25 15:39:50;;;;;;;4.60;1.30;;;;;;;;;;4961246;28;20651;-69
2022/05/25 15:42:16;;;;;;;1.87;1.50;;;;;;;;;;4956735;28;20201;-69